Time;durP1;ratioP1;P1;durP2;ratioP2;P2;SDS_P1;SDS_P2;PMS_P1;PMS_P2;Temp;Humidity;BMP_temperature;BMP_pressure;BME280_temperature;BME280_humidity;BME280_pressure;Samples;Min_cycle;Max_cycle;Signal;HPM_P1;HPM_P2
2021/03/11 00:00:09;;;;;;;28.17;22.00;;;6.80;99.90;;;;;;5094879;28;20143;-66
2021/03/11 00:02:34;;;;;;;23.77;21.00;;;6.80;99.90;;;;;;5095143;28;20572;-66
2021/03/11 00:05:00;;;;;;;29.47;23.17;;;6.80;99.90;;;;;;5094679;28;20432;-66
2021/03/11 00:07:26;;;;;;;23.43;20.93;;;6.90;99.90;;;;;;5093530;28;20619;-66
2021/03/11 00:09:51;;;;;;;24.17;20.17;;;6.90;99.90;;;;;;5094844;28;20151;-66
2021/03/11 00:12:17;;;;;;;24.60;20.37;;;6.90;99.90;;;;;;5100747;28;20306;-66
2021/03/11 00:14:43;;;;;;;26.47;21.57;;;6.90;99.90;;;;;;5115273;28;20189;-66
2021/03/11 00:17:09;;;;;;;25.40;21.50;;;6.90;99.90;;;;;;5115006;28;20153;-66
2021/03/11 00:19:35;;;;;;;26.53;20.27;;;6.90;99.90;;;;;;5114894;28;20384;-66
2021/03/11 00:22:01;;;;;;;24.73;20.50;;;6.90;99.90;;;;;;5114942;28;20619;-66
2021/03/11 00:24:27;;;;;;;23.17;20.30;;;6.90;99.90;;;;;;5114139;28;20193;-66
2021/03/11 00:26:52;;;;;;;26.57;22.33;;;6.90;99.90;;;;;;5113619;28;20427;-66
2021/03/11 00:29:18;;;;;;;24.83;20.53;;;7.00;99.90;;;;;;5113849;28;20404;-66
2021/03/11 00:31:44;;;;;;;25.77;21.10;;;7.00;99.90;;;;;;5114716;28;20162;-66
2021/03/11 00:34:10;;;;;;;22.07;19.23;;;7.00;99.90;;;;;;5114570;28;20570;-66
2021/03/11 00:36:35;;;;;;;20.53;17.93;;;7.00;99.90;;;;;;5114582;28;20159;-66
2021/03/11 00:39:03;;;;;;;22.93;20.33;;;7.00;99.90;;;;;;5114679;28;20404;-66
2021/03/11 00:41:28;;;;;;;24.67;20.00;;;7.00;99.90;;;;;;5114606;28;20690;-66
2021/03/11 00:43:54;;;;;;;23.17;19.23;;;7.10;99.90;;;;;;5114418;28;20475;-65
2021/03/11 00:46:20;;;;;;;24.07;19.00;;;7.10;99.90;;;;;;5113773;28;20691;-65
2021/03/11 00:48:46;;;;;;;23.17;19.70;;;7.10;99.90;;;;;;5114287;28;20161;-66
2021/03/11 00:51:11;;;;;;;24.10;19.50;;;7.10;99.90;;;;;;5114530;28;20396;-66
2021/03/11 00:53:37;;;;;;;23.07;19.70;;;7.10;99.90;;;;;;5114424;28;20599;-66
2021/03/11 00:56:03;;;;;;;24.37;20.00;;;7.10;99.90;;;;;;5114226;28;20243;-66
2021/03/11 00:58:28;;;;;;;27.03;21.83;;;7.10;99.90;;;;;;5104631;28;20224;-66
2021/03/11 01:00:54;;;;;;;28.00;21.07;;;7.00;99.90;;;;;;5093739;28;20389;-65
2021/03/11 01:03:20;;;;;;;25.10;20.30;;;7.00;99.90;;;;;;5094261;28;20220;-66
2021/03/11 01:05:45;;;;;;;26.30;21.90;;;7.00;99.90;;;;;;5093995;28;20241;-66
2021/03/11 01:08:11;;;;;;;25.60;21.43;;;6.90;99.90;;;;;;5093700;28;20226;-66
2021/03/11 01:10:37;;;;;;;27.00;22.23;;;6.90;99.90;;;;;;5093713;28;20163;-66
2021/03/11 01:13:02;;;;;;;27.60;21.53;;;6.80;99.90;;;;;;5092511;28;20166;-66
2021/03/11 01:15:32;;;;;;;27.07;21.37;;;6.70;99.90;;;;;;5093546;28;20975;-66
2021/03/11 01:17:58;;;;;;;30.50;24.13;;;6.70;99.90;;;;;;5093575;28;20151;-65
2021/03/11 01:20:23;;;;;;;30.10;23.40;;;6.70;99.90;;;;;;5094375;28;21033;-66
2021/03/11 01:22:49;;;;;;;31.63;23.60;;;6.70;99.90;;;;;;5093619;28;20203;-66
2021/03/11 01:25:14;;;;;;;26.93;22.63;;;6.60;99.90;;;;;;5092920;28;20292;-65
2021/03/11 01:27:40;;;;;;;32.00;21.80;;;6.60;99.90;;;;;;5093314;28;20163;-66
2021/03/11 01:30:08;;;;;;;32.63;23.37;;;6.60;99.90;;;;;;5093389;28;20159;-66
2021/03/11 01:32:33;;;;;;;32.20;24.67;;;6.60;99.90;;;;;;5093685;28;20589;-66
2021/03/11 01:34:59;;;;;;;27.50;22.20;;;6.50;99.90;;;;;;5093077;28;20531;-66
2021/03/11 01:37:25;;;;;;;32.30;24.63;;;6.50;99.90;;;;;;5092690;28;20231;-66
2021/03/11 01:39:50;;;;;;;32.10;26.37;;;6.50;99.90;;;;;;5093142;28;20234;-66
2021/03/11 01:42:16;;;;;;;31.43;24.50;;;6.50;99.90;;;;;;5093069;28;20166;-66
2021/03/11 01:44:42;;;;;;;29.57;24.07;;;6.50;99.90;;;;;;5093325;28;20562;-66
2021/03/11 01:47:07;;;;;;;34.10;23.30;;;6.50;99.90;;;;;;5093290;28;20198;-66
2021/03/11 01:49:33;;;;;;;27.00;22.57;;;6.50;99.90;;;;;;5093002;28;20250;-66
2021/03/11 01:52:00;;;;;;;32.50;24.40;;;6.50;99.90;;;;;;5093320;28;20163;-66
2021/03/11 01:54:26;;;;;;;31.90;23.83;;;6.50;99.90;;;;;;5093403;28;20256;-66
2021/03/11 01:56:52;;;;;;;28.30;19.70;;;6.60;99.90;;;;;;5093022;28;20615;-66
2021/03/11 01:59:17;;;;;;;26.40;20.77;;;6.60;99.90;;;;;;5093067;28;20916;-66
2021/03/11 02:01:43;;;;;;;28.73;21.63;;;6.60;99.90;;;;;;5092892;28;20405;-66
2021/03/11 02:04:09;;;;;;;29.53;21.67;;;6.60;99.90;;;;;;5092885;28;20151;-66
2021/03/11 02:06:34;;;;;;;26.77;20.73;;;6.60;99.90;;;;;;5093200;28;20521;-66
2021/03/11 02:09:00;;;;;;;26.57;20.60;;;6.70;99.90;;;;;;5092976;28;20159;-66
2021/03/11 02:11:27;;;;;;;23.10;18.90;;;6.70;99.90;;;;;;5099506;28;20162;-66
2021/03/11 02:21:53;;;;;;;21.07;17.30;;;6.70;99.90;;;;;;5131786;27;20508;-66
2021/03/11 02:24:44;;;;;;;20.40;16.00;;;6.90;99.90;;;;;;5131361;27;20387;-66
2021/03/11 02:29:53;;;;;;;18.17;14.67;;;6.90;99.90;;;;;;5112145;27;20868;-66
2021/03/11 02:32:20;;;;;;;17.30;14.27;;;7.00;99.90;;;;;;5110941;28;20392;-66
2021/03/11 02:34:48;;;;;;;15.17;13.40;;;7.10;99.90;;;;;;5110838;28;20477;-66
2021/03/11 02:37:26;;;;;;;17.40;13.90;;;7.10;99.90;;;;;;5109440;28;20899;-66
2021/03/11 02:39:58;;;;;;;13.67;11.67;;;7.10;99.90;;;;;;5109861;28;20881;-66
2021/03/11 02:42:25;;;;;;;14.67;11.53;;;7.10;99.90;;;;;;5109351;28;20460;-66
2021/03/11 02:44:52;;;;;;;14.63;12.27;;;7.20;99.90;;;;;;5110433;28;20485;-66
2021/03/11 02:47:18;;;;;;;11.40;9.97;;;7.20;99.90;;;;;;5110370;28;20409;-66
2021/03/11 02:49:46;;;;;;;11.60;9.17;;;7.20;99.90;;;;;;5110603;28;20439;-66
2021/03/11 02:52:13;;;;;;;10.83;9.17;;;7.20;99.90;;;;;;5110326;28;20490;-66
2021/03/11 02:54:40;;;;;;;11.00;9.13;;;7.30;99.90;;;;;;5110447;28;20393;-66
2021/03/11 02:57:08;;;;;;;10.00;9.00;;;7.30;99.90;;;;;;5110205;28;20476;-66
2021/03/11 02:59:36;;;;;;;10.43;8.70;;;7.40;99.90;;;;;;5092748;28;20471;-66
2021/03/11 03:02:04;;;;;;;9.20;7.73;;;7.40;99.90;;;;;;5094139;28;20416;-66
2021/03/11 03:04:30;;;;;;;8.87;7.97;;;7.40;99.90;;;;;;5109081;28;20767;-66
2021/03/11 03:06:57;;;;;;;7.50;6.80;;;7.50;99.90;;;;;;5110589;28;20812;-66
2021/03/11 03:09:23;;;;;;;9.43;6.50;;;7.50;99.90;;;;;;5109932;28;20516;-66
2021/03/11 03:11:50;;;;;;;9.97;7.73;;;7.50;99.90;;;;;;5110008;28;20387;-66
2021/03/11 03:14:17;;;;;;;7.10;6.23;;;7.50;99.90;;;;;;5109941;28;20384;-66
2021/03/11 03:16:43;;;;;;;7.33;6.27;;;7.60;99.90;;;;;;5110308;28;20393;-66
2021/03/11 03:19:11;;;;;;;8.97;6.40;;;7.60;99.90;;;;;;5109583;28;20416;-66
2021/03/11 03:21:37;;;;;;;6.67;5.40;;;7.60;99.90;;;;;;5110073;28;20764;-66
2021/03/11 03:24:04;;;;;;;7.33;6.63;;;7.60;99.90;;;;;;5109791;28;20454;-66
2021/03/11 03:26:29;;;;;;;6.67;5.20;;;7.60;99.90;;;;;;5109797;28;20400;-66
2021/03/11 03:28:55;;;;;;;6.87;6.10;;;7.60;99.90;;;;;;5109525;28;20459;-66
2021/03/11 03:31:21;;;;;;;6.07;5.47;;;7.60;99.90;;;;;;5109956;28;20168;-66
2021/03/11 03:33:47;;;;;;;5.50;4.97;;;7.60;99.90;;;;;;5109569;27;20158;-66
2021/03/11 03:36:12;;;;;;;5.40;4.90;;;7.60;99.90;;;;;;5109422;28;20528;-66
2021/03/11 03:38:38;;;;;;;5.13;4.57;;;7.60;99.90;;;;;;5109603;28;20158;-66
2021/03/11 03:41:04;;;;;;;5.00;4.50;;;7.70;99.90;;;;;;5096793;28;20217;-66
2021/03/11 03:43:35;;;;;;;8.70;6.60;;;7.60;99.90;;;;;;5095889;28;20181;-66
2021/03/11 03:46:20;;;;;;;7.20;6.60;;;7.60;99.90;;;;;;5096020;28;20183;-66
2021/03/11 03:51:26;;;;;;;7.67;6.20;;;7.60;99.90;;;;;;5110759;27;20502;-65
2021/03/11 03:54:10;;;;;;;7.07;6.47;;;7.50;99.90;;;;;;5099895;28;20409;-66
2021/03/11 03:56:39;;;;;;;7.13;6.43;;;7.50;99.90;;;;;;5089828;28;20907;-66
2021/03/11 03:59:09;;;;;;;7.80;7.00;;;7.40;99.90;;;;;;5102991;28;20781;-65
2021/03/11 04:01:39;;;;;;;8.93;7.23;;;7.40;99.90;;;;;;5110854;28;20385;-66
2021/03/11 04:04:07;;;;;;;9.33;6.70;;;7.40;99.90;;;;;;5110654;28;20396;-65
2021/03/11 04:06:33;;;;;;;8.13;7.30;;;7.40;99.90;;;;;;5110517;28;20420;-65
2021/03/11 04:09:03;;;;;;;8.63;7.80;;;7.40;99.90;;;;;;5109120;28;20833;-65
2021/03/11 04:11:30;;;;;;;8.13;7.33;;;7.40;99.90;;;;;;5109770;28;20420;-65
2021/03/11 04:13:58;;;;;;;11.40;8.20;;;7.30;99.90;;;;;;5110504;28;20395;-65
2021/03/11 04:16:24;;;;;;;8.80;7.90;;;7.30;99.90;;;;;;5110476;28;20476;-65
2021/03/11 04:18:52;;;;;;;9.63;7.83;;;7.30;99.90;;;;;;5110646;28;20493;-65
2021/03/11 04:21:18;;;;;;;9.50;8.60;;;7.30;99.90;;;;;;5110204;28;20396;-65
2021/03/11 04:23:46;;;;;;;8.77;7.90;;;7.30;99.90;;;;;;5110216;28;20396;-65
2021/03/11 04:26:12;;;;;;;8.93;8.10;;;7.30;99.90;;;;;;5110098;28;20396;-65
2021/03/11 04:28:39;;;;;;;9.57;8.47;;;7.30;99.90;;;;;;5109389;28;20408;-66
2021/03/11 04:31:05;;;;;;;9.60;8.50;;;7.30;99.90;;;;;;5109990;28;20538;-66
2021/03/11 04:33:33;;;;;;;9.23;8.30;;;7.30;99.90;;;;;;5109976;28;20784;-65
2021/03/11 04:35:59;;;;;;;8.13;7.33;;;7.30;99.90;;;;;;5109732;28;20395;-66
2021/03/11 04:38:25;;;;;;;9.40;8.27;;;7.30;99.90;;;;;;5108743;28;20388;-66
2021/03/11 04:40:52;;;;;;;9.83;8.13;;;7.30;99.90;;;;;;5110132;28;20396;-65
2021/03/11 04:43:18;;;;;;;8.10;7.30;;;7.30;99.90;;;;;;5110068;28;20400;-65
2021/03/11 04:45:45;;;;;;;8.30;7.50;;;7.40;99.90;;;;;;5108818;28;20436;-65
2021/03/11 04:48:11;;;;;;;7.53;6.73;;;7.40;99.90;;;;;;5109818;28;20420;-65
2021/03/11 04:50:39;;;;;;;7.70;6.90;;;7.40;99.90;;;;;;5109550;28;20866;-66
2021/03/11 04:53:05;;;;;;;8.83;7.10;;;7.40;99.90;;;;;;5109509;28;20422;-66
2021/03/11 04:55:31;;;;;;;6.87;6.20;;;7.40;99.90;;;;;;5109607;28;20432;-65
2021/03/11 04:57:57;;;;;;;7.83;7.13;;;7.50;99.90;;;;;;5106097;28;20436;-66
2021/03/11 05:00:23;;;;;;;7.40;6.70;;;7.50;99.90;;;;;;5088994;28;20433;-65
2021/03/11 05:02:49;;;;;;;7.10;5.97;;;7.50;99.90;;;;;;5075797;28;20195;-65
2021/03/11 05:05:29;;;;;;;8.90;7.00;;;7.50;99.90;;;;;;5075791;28;20922;-65
2021/03/11 05:07:55;;;;;;;6.93;6.30;;;7.50;99.90;;;;;;5075549;28;20933;-65
2021/03/11 05:10:20;;;;;;;6.20;5.60;;;7.60;99.90;;;;;;5075663;28;20445;-66
2021/03/11 05:12:46;;;;;;;8.50;6.90;;;7.60;99.90;;;;;;5075672;28;20163;-65
2021/03/11 05:15:12;;;;;;;6.27;5.57;;;7.60;99.90;;;;;;5075373;28;20156;-65
2021/03/11 05:17:37;;;;;;;5.40;4.90;;;7.60;99.90;;;;;;5075940;28;20207;-66
2021/03/11 05:20:03;;;;;;;5.83;5.23;;;7.70;99.90;;;;;;5075256;28;20428;-66
2021/03/11 05:22:29;;;;;;;6.30;5.23;;;7.70;99.90;;;;;;5075341;28;20269;-65
2021/03/11 05:24:54;;;;;;;5.70;5.20;;;7.70;99.90;;;;;;5075337;28;20393;-66
2021/03/11 05:27:20;;;;;;;5.23;4.73;;;7.70;99.90;;;;;;5075330;28;20251;-65
2021/03/11 05:29:45;;;;;;;6.00;4.73;;;7.80;99.90;;;;;;5074978;28;20199;-65
2021/03/11 05:32:11;;;;;;;5.80;4.77;;;7.80;99.90;;;;;;5075183;28;20209;-65
2021/03/11 05:34:36;;;;;;;5.80;4.73;;;7.80;99.90;;;;;;5075552;28;20162;-66
2021/03/11 05:37:02;;;;;;;4.60;4.20;;;7.80;99.90;;;;;;5075462;28;20654;-65
2021/03/11 05:39:28;;;;;;;5.20;4.70;;;7.80;99.90;;;;;;5075022;28;20632;-66
2021/03/11 05:41:55;;;;;;;5.90;5.30;;;7.80;99.90;;;;;;5075085;28;20214;-65
2021/03/11 05:44:21;;;;;;;6.40;4.90;;;7.80;99.90;;;;;;5074850;28;20609;-65
2021/03/11 05:46:48;;;;;;;6.60;5.13;;;7.70;99.90;;;;;;5074615;28;20428;-65
2021/03/11 05:49:15;;;;;;;5.27;4.30;;;7.70;99.90;;;;;;5074749;28;20941;-65
2021/03/11 05:51:42;;;;;;;6.00;5.40;;;7.70;99.90;;;;;;5075519;28;20447;-65
2021/03/11 05:54:08;;;;;;;6.50;5.00;;;7.70;99.90;;;;;;5074654;28;20390;-66
2021/03/11 05:56:34;;;;;;;6.20;5.53;;;7.70;99.90;;;;;;5074741;28;20390;-66
2021/03/11 05:59:01;;;;;;;5.23;4.73;;;7.70;99.90;;;;;;5074470;28;20417;-66
2021/03/11 06:01:31;;;;;;;6.40;5.77;;;7.70;99.90;;;;;;5074625;28;20425;-66
2021/03/11 06:03:59;;;;;;;6.40;5.67;;;7.70;99.90;;;;;;5074887;28;20426;-65
2021/03/11 06:06:26;;;;;;;6.13;4.97;;;7.70;99.90;;;;;;5074517;28;20859;-65
2021/03/11 06:08:54;;;;;;;5.90;5.30;;;7.70;99.90;;;;;;5076774;28;21031;-66
2021/03/11 06:11:22;;;;;;;7.93;6.03;;;7.70;99.90;;;;;;5094770;28;20433;-65
2021/03/11 06:13:49;;;;;;;6.40;4.90;;;7.70;99.90;;;;;;5093662;28;20416;-65
2021/03/11 06:16:19;;;;;;;5.80;5.20;;;7.70;99.90;;;;;;5094980;28;20742;-65
2021/03/11 06:18:48;;;;;;;6.17;5.23;;;7.70;99.90;;;;;;5094711;28;20415;-66
2021/03/11 06:21:13;;;;;;;6.63;6.00;;;7.70;99.90;;;;;;5094467;28;20393;-66
2021/03/11 06:23:39;;;;;;;5.83;5.27;;;7.70;99.90;;;;;;5094628;28;20454;-66
2021/03/11 06:26:06;;;;;;;5.40;4.83;;;7.80;99.90;;;;;;5093509;28;20706;-65
2021/03/11 06:31:27;;;;;;;5.70;5.00;;;7.80;99.90;;;;;;5111177;27;20913;-65
2021/03/11 06:33:56;;;;;;;4.93;4.40;;;7.80;99.90;;;;;;5110831;28;20388;-65
2021/03/11 06:36:23;;;;;;;5.37;4.87;;;7.90;99.90;;;;;;5110972;28;20381;-65
2021/03/11 06:38:49;;;;;;;5.93;5.23;;;7.90;99.90;;;;;;5110922;28;20380;-65
2021/03/11 06:41:15;;;;;;;4.93;4.50;;;7.90;99.90;;;;;;5110782;28;20471;-65
2021/03/11 06:46:31;;;;;;;5.67;5.17;;;7.90;99.90;;;;;;5110985;27;20513;-66
2021/03/11 06:52:12;;;;;;;5.70;5.20;;;8.00;99.90;;;;;;5090712;28;20927;-66
2021/03/11 06:55:03;;;;;;;17.63;6.00;;;8.10;99.90;;;;;;5090502;28;20405;-66
2021/03/11 06:57:32;;;;;;;5.27;4.77;;;8.10;99.90;;;;;;5089875;28;20386;-66
2021/03/11 06:59:59;;;;;;;5.27;4.47;;;8.10;99.90;;;;;;5089597;28;20912;-66
2021/03/11 07:02:26;;;;;;;5.30;4.63;;;8.20;99.90;;;;;;5089207;28;20874;-66
2021/03/11 07:04:53;;;;;;;5.10;4.60;;;8.20;99.90;;;;;;5090526;28;20398;-66
2021/03/11 07:07:21;;;;;;;4.50;4.10;;;8.20;99.90;;;;;;5089063;28;20386;-66
2021/03/11 07:09:48;;;;;;;5.63;4.80;;;8.30;99.90;;;;;;5090174;28;20962;-66
2021/03/11 07:12:14;;;;;;;4.37;3.97;;;8.30;99.90;;;;;;5090503;28;20389;-66
2021/03/11 07:14:40;;;;;;;4.83;4.33;;;8.30;99.90;;;;;;5088977;28;20393;-66
2021/03/11 07:17:23;;;;;;;5.83;5.33;;;8.40;99.90;;;;;;5089286;28;20397;-66
2021/03/11 07:20:06;;;;;;;5.07;4.67;;;8.40;99.90;;;;;;5090334;28;20164;-66
2021/03/11 07:22:32;;;;;;;5.30;4.80;;;8.40;99.90;;;;;;5090262;28;20427;-65
2021/03/11 07:24:58;;;;;;;4.87;4.37;;;8.50;99.90;;;;;;5089901;28;20390;-66
2021/03/11 07:27:23;;;;;;;5.57;4.83;;;8.50;99.90;;;;;;5089959;28;20537;-67
2021/03/11 07:30:06;;;;;;;5.80;4.87;;;8.60;99.90;;;;;;5089715;28;20518;-65
2021/03/11 07:32:34;;;;;;;6.43;5.20;;;8.60;99.90;;;;;;5089859;28;20526;-65
2021/03/11 07:35:02;;;;;;;4.30;3.90;;;8.60;99.90;;;;;;5089406;28;20442;-65
2021/03/11 07:37:28;;;;;;;4.60;4.20;;;8.60;99.90;;;;;;5089980;28;20420;-65
2021/03/11 07:39:58;;;;;;;3.97;3.67;;;8.60;99.90;;;;;;5089886;28;20389;-65
2021/03/11 07:42:24;;;;;;;4.87;3.77;;;8.60;99.90;;;;;;5089605;28;20160;-65
2021/03/11 07:44:50;;;;;;;5.00;4.40;;;8.60;99.90;;;;;;5089862;28;20899;-65
2021/03/11 07:47:17;;;;;;;5.70;4.13;;;8.70;99.90;;;;;;5089561;28;20432;-65
2021/03/11 07:49:43;;;;;;;4.00;3.60;;;8.70;99.90;;;;;;5089430;28;20399;-65
2021/03/11 07:52:12;;;;;;;4.83;3.63;;;8.70;99.90;;;;;;5088727;28;20407;-65
2021/03/11 07:54:38;;;;;;;5.60;4.10;;;8.70;99.90;;;;;;5089216;28;20422;-65
2021/03/11 07:57:04;;;;;;;5.07;4.40;;;8.80;99.90;;;;;;5089778;28;20396;-65
2021/03/11 07:59:31;;;;;;;6.63;4.10;;;8.80;99.90;;;;;;5072124;28;20407;-67
2021/03/11 08:02:16;;;;;;;5.27;4.77;;;8.90;99.90;;;;;;5063187;28;20475;-65
2021/03/11 08:04:43;;;;;;;4.10;3.70;;;9.10;99.90;;;;;;5055995;28;20447;-66
2021/03/11 08:07:25;;;;;;;5.10;3.87;;;9.20;99.90;;;;;;5055717;28;20400;-67
2021/03/11 08:09:54;;;;;;;3.67;3.13;;;9.40;99.90;;;;;;5056345;28;20480;-66
2021/03/11 08:12:37;;;;;;;3.87;3.10;;;9.40;99.90;;;;;;5055598;28;20456;-65
2021/03/11 08:15:07;;;;;;;3.83;3.43;;;9.40;99.90;;;;;;5055663;28;20384;-67
2021/03/11 08:23:02;;;;;;;4.90;3.53;;;9.40;99.90;;;;;;5131434;27;20517;-65
2021/03/11 08:36:03;;;;;;;3.93;3.43;;;9.40;99.90;;;;;;5131160;27;20504;-66
2021/03/11 08:41:10;;;;;;;6.90;4.70;;;9.60;99.90;;;;;;5130717;27;20572;-66
2021/03/11 08:46:16;;;;;;;6.53;3.97;;;9.80;99.90;;;;;;5133175;27;20545;-65
2021/03/11 08:53:58;;;;;;;7.23;4.30;;;10.10;99.90;;;;;;5090709;28;20978;-67
2021/03/11 08:59:04;;;;;;;2.70;1.90;;;10.40;99.90;;;;;;5131187;27;20517;-66
2021/03/11 09:07:01;;;;;;;6.00;3.03;;;10.50;99.90;;;;;;5090789;28;21029;-66
2021/03/11 09:14:57;;;;;;;5.30;2.20;;;10.40;99.90;;;;;;5131920;27;20574;-65
2021/03/11 09:17:27;;;;;;;4.27;2.30;;;10.30;99.90;;;;;;5117503;27;20906;-65
2021/03/11 09:19:55;;;;;;;3.80;1.87;;;10.20;99.90;;;;;;5152107;27;20486;-65
2021/03/11 09:27:33;;;;;;;13.13;4.10;;;10.10;99.90;;;;;;5131631;27;20560;-66
2021/03/11 09:30:02;;;;;;;7.83;2.30;;;9.80;99.90;;;;;;5131096;28;20396;-66
2021/03/11 09:32:30;;;;;;;11.33;3.33;;;9.80;99.90;;;;;;5131091;28;20386;-66
2021/03/11 09:35:01;;;;;;;9.07;3.20;;;9.80;99.90;;;;;;5111135;28;20443;-66
2021/03/11 09:48:34;;;;;;;9.90;3.30;;;9.80;99.90;;;;;;5131499;27;20512;-66
2021/03/11 09:53:46;;;;;;;14.47;3.30;;;9.90;99.90;;;;;;5110900;27;20563;-65
2021/03/11 09:58:51;;;;;;;11.50;2.80;;;9.90;99.90;;;;;;5090354;27;20572;-66
2021/03/11 10:04:10;;;;;;;8.70;3.27;;;10.00;99.90;;;;;;5090649;27;21084;-65
2021/03/11 10:06:36;;;;;;;11.80;3.50;;;10.10;99.90;;;;;;5089134;28;20465;-65
2021/03/11 10:09:03;;;;;;;8.73;3.70;;;10.20;99.90;;;;;;5070657;28;20400;-65
2021/03/11 10:11:41;;;;;;;16.60;4.00;;;10.30;99.90;;;;;;5070508;28;20472;-65
2021/03/11 10:14:24;;;;;;;13.43;4.50;;;10.30;99.90;;;;;;5069642;28;20808;-65
2021/03/11 10:16:53;;;;;;;13.60;3.90;;;10.30;99.90;;;;;;5068633;28;20396;-65
2021/03/11 10:19:20;;;;;;;10.90;4.40;;;10.30;99.90;;;;;;5068487;28;20394;-65
2021/03/11 10:27:26;;;;;;;14.93;5.10;;;10.30;99.90;;;;;;5109299;27;20503;-66
2021/03/11 10:32:52;;;;;;;15.23;4.60;;;10.50;99.90;;;;;;5131666;27;21022;-66
2021/03/11 10:35:30;;;;;;;9.63;3.23;;;10.50;99.90;;;;;;5131372;28;20403;-66
2021/03/11 10:38:13;;;;;;;9.27;3.53;;;10.60;99.90;;;;;;5131820;28;20386;-66
2021/03/11 10:40:38;;;;;;;5.07;2.40;;;10.80;99.90;;;;;;5130562;28;20426;-66
2021/03/11 10:43:15;;;;;;;11.40;3.13;;;11.00;99.90;;;;;;5110728;28;20434;-65
2021/03/11 10:45:41;;;;;;;5.73;2.40;;;11.20;99.90;;;;;;5109746;28;20293;-66
2021/03/11 10:48:08;;;;;;;12.13;3.40;;;11.40;99.90;;;;;;5110884;27;20789;-66
2021/03/11 10:50:40;;;;;;;8.20;2.37;;;11.50;99.90;;;;;;5110638;28;20170;-65
2021/03/11 10:53:06;;;;;;;6.03;2.50;;;11.50;99.90;;;;;;5111127;28;20486;-65
2021/03/11 10:55:35;;;;;;;6.93;2.67;;;11.60;99.90;;;;;;5107618;28;20512;-65
2021/03/11 10:58:03;;;;;;;9.43;2.23;;;11.60;99.90;;;;;;5113811;28;20415;-65
2021/03/11 11:03:06;;;;;;;5.53;2.40;;;11.70;99.90;;;;;;5131492;27;21054;-66
2021/03/11 11:05:32;;;;;;;6.20;2.60;;;11.80;99.90;;;;;;5131475;28;20374;-66
2021/03/11 11:07:59;;;;;;;4.83;2.10;;;11.80;99.90;;;;;;5130533;28;20210;-66
2021/03/11 11:10:26;;;;;;;4.43;1.83;;;11.80;99.90;;;;;;5130029;28;20388;-66
2021/03/11 11:12:52;;;;;;;7.07;1.83;;;11.80;99.90;;;;;;5131494;28;20379;-66
2021/03/11 11:15:18;;;;;;;6.27;2.10;;;12.00;99.90;;;;;;5125172;28;20815;-66
2021/03/11 11:17:44;;;;;;;4.60;2.77;;;12.10;99.90;;;;;;5109424;28;20177;-66
2021/03/11 11:20:13;;;;;;;4.80;1.87;;;12.20;99.90;;;;;;5110588;28;20896;-66
2021/03/11 11:22:39;;;;;;;5.90;2.83;;;12.30;99.90;;;;;;5109458;28;20450;-66
2021/03/11 11:25:06;;;;;;;7.50;1.90;;;12.40;99.90;;;;;;5110736;28;20392;-66
2021/03/11 11:27:31;;;;;;;4.33;1.90;;;12.50;99.90;;;;;;5109367;28;20200;-66
2021/03/11 11:29:57;;;;;;;6.30;2.13;;;12.70;99.90;;;;;;5110273;28;20396;-66
2021/03/11 11:32:23;;;;;;;7.07;2.47;;;12.80;99.90;;;;;;5111237;28;20265;-66
2021/03/11 11:34:50;;;;;;;6.63;2.33;;;13.00;99.90;;;;;;5110444;28;20166;-66
2021/03/11 11:37:17;;;;;;;6.87;2.30;;;13.10;99.90;;;;;;5110622;28;20418;-66
2021/03/11 11:39:43;;;;;;;6.83;2.60;;;13.20;99.90;;;;;;5110203;28;20396;-66
2021/03/11 11:42:09;;;;;;;13.77;2.60;;;13.30;99.90;;;;;;5108808;28;20455;-66
2021/03/11 11:44:35;;;;;;;7.40;2.30;;;13.40;99.90;;;;;;5110213;28;20396;-66
2021/03/11 11:47:00;;;;;;;9.30;2.90;;;13.50;99.90;;;;;;5109935;28;20568;-66
2021/03/11 11:49:26;;;;;;;7.47;2.17;;;13.60;99.90;;;;;;5110813;28;20579;-66
2021/03/11 11:51:52;;;;;;;5.47;1.97;;;13.70;99.90;;;;;;5109989;28;20167;-66
2021/03/11 11:54:17;;;;;;;8.43;1.97;;;13.80;99.90;;;;;;5110166;28;20520;-66
2021/03/11 11:56:43;;;;;;;6.50;2.57;;;13.90;99.90;;;;;;5110185;28;20193;-66
2021/03/11 11:59:08;;;;;;;9.97;3.13;;;13.90;99.90;;;;;;5110056;28;20185;-66
2021/03/11 12:01:34;;;;;;;10.10;2.90;;;13.80;99.90;;;;;;5109562;28;20206;-66
2021/03/11 12:04:00;;;;;;;12.07;4.23;;;13.90;99.90;;;;;;5110089;28;20647;-66
2021/03/11 12:06:25;;;;;;;11.67;2.43;;;13.90;99.90;;;;;;5116967;28;20203;-66
2021/03/11 12:08:51;;;;;;;9.40;2.90;;;13.90;99.90;;;;;;5130275;27;20154;-66
2021/03/11 12:11:16;;;;;;;8.13;3.10;;;14.00;99.90;;;;;;5130249;28;20165;-66
2021/03/11 12:13:42;;;;;;;17.80;3.30;;;14.10;99.90;;;;;;5119760;28;20156;-66
2021/03/11 12:16:08;;;;;;;8.07;3.53;;;14.10;99.90;;;;;;5116372;28;20152;-66
2021/03/11 12:18:33;;;;;;;5.67;2.43;;;14.10;99.90;;;;;;5116544;28;20179;-66
2021/03/11 12:20:59;;;;;;;12.27;2.50;;;14.10;99.90;;;;;;5116348;28;20658;-66
2021/03/11 12:23:24;;;;;;;4.23;1.83;;;14.00;99.90;;;;;;5115325;28;20185;-66
2021/03/11 12:25:50;;;;;;;10.83;2.97;;;14.00;99.90;;;;;;5116311;28;20151;-66
2021/03/11 12:28:15;;;;;;;6.93;1.90;;;13.90;99.90;;;;;;5116211;28;20158;-66
2021/03/11 12:30:41;;;;;;;7.03;2.50;;;13.80;99.90;;;;;;5116154;28;20186;-66
2021/03/11 12:33:07;;;;;;;9.97;2.93;;;13.80;99.90;;;;;;5116355;28;20151;-66
2021/03/11 12:35:32;;;;;;;11.73;3.77;;;13.80;99.90;;;;;;5116269;28;20166;-66
2021/03/11 12:37:58;;;;;;;8.63;3.37;;;13.80;99.90;;;;;;5115399;28;20155;-66
2021/03/11 12:40:25;;;;;;;10.13;3.43;;;13.70;99.90;;;;;;5112721;28;20257;-66
2021/03/11 12:42:51;;;;;;;4.90;2.40;;;13.80;99.90;;;;;;5114523;28;20178;-66
2021/03/11 12:45:18;;;;;;;7.40;2.67;;;13.90;99.90;;;;;;5114481;28;20397;-66
2021/03/11 12:47:44;;;;;;;10.67;3.93;;;14.00;99.90;;;;;;5114693;28;20438;-66
2021/03/11 12:50:11;;;;;;;8.20;2.90;;;14.10;99.90;;;;;;5115724;28;20380;-66
2021/03/11 12:52:37;;;;;;;9.93;5.17;;;14.20;99.40;;;;;;5115778;28;20155;-66
2021/03/11 12:55:02;;;;;;;9.83;3.30;;;14.20;99.80;;;;;;5115610;28;20399;-66
2021/03/11 12:57:28;;;;;;;17.73;4.77;;;14.30;99.90;;;;;;5107802;28;20753;-66
2021/03/11 12:59:53;;;;;;;9.57;3.20;;;14.30;99.90;;;;;;5095390;28;20159;-66
2021/03/11 13:02:19;;;;;;;9.33;3.27;;;14.30;99.90;;;;;;5094995;28;20727;-66
2021/03/11 13:04:44;;;;;;;10.80;3.70;;;14.30;99.90;;;;;;5095045;28;20518;-66
2021/03/11 13:07:11;;;;;;;8.90;3.33;;;14.20;99.90;;;;;;5095008;28;20163;-66
2021/03/11 13:09:36;;;;;;;7.33;2.90;;;14.10;99.90;;;;;;5093795;28;20209;-66
2021/03/11 13:12:03;;;;;;;9.10;2.57;;;14.00;99.90;;;;;;5094850;28;20389;-66
2021/03/11 13:14:29;;;;;;;11.30;3.17;;;13.80;99.90;;;;;;5095489;28;20183;-66
2021/03/11 13:16:54;;;;;;;8.93;3.57;;;13.80;99.90;;;;;;5094590;28;20405;-66
2021/03/11 13:19:22;;;;;;;15.10;3.30;;;13.60;99.90;;;;;;5093548;28;20163;-66
2021/03/11 13:21:48;;;;;;;10.50;2.83;;;13.60;99.90;;;;;;5094676;28;20644;-66
2021/03/11 13:24:14;;;;;;;17.67;3.87;;;13.50;99.90;;;;;;5094307;28;20381;-66
2021/03/11 13:26:40;;;;;;;9.33;2.60;;;13.50;99.90;;;;;;5094188;28;20389;-66
2021/03/11 13:29:06;;;;;;;10.63;3.60;;;13.40;99.90;;;;;;5094786;28;20387;-66
2021/03/11 13:31:33;;;;;;;13.00;2.83;;;13.30;99.90;;;;;;5095115;28;20612;-66
2021/03/11 13:33:59;;;;;;;10.13;2.90;;;13.30;99.90;;;;;;5094390;28;20614;-66
2021/03/11 13:36:24;;;;;;;10.10;3.47;;;13.20;99.90;;;;;;5094548;28;20396;-66
2021/03/11 13:38:50;;;;;;;18.70;4.47;;;13.10;99.90;;;;;;5094491;28;20175;-66
2021/03/11 13:41:16;;;;;;;14.27;2.80;;;13.00;99.90;;;;;;5094607;28;20190;-66
2021/03/11 13:43:41;;;;;;;12.40;3.20;;;12.90;99.90;;;;;;5094698;28;20224;-66
2021/03/11 13:46:07;;;;;;;8.53;2.43;;;12.90;99.90;;;;;;5094000;28;20209;-66
2021/03/11 13:48:32;;;;;;;9.53;3.67;;;13.00;99.90;;;;;;5094690;28;20178;-66
2021/03/11 13:50:58;;;;;;;9.63;2.97;;;13.10;99.90;;;;;;5094076;28;20512;-66
2021/03/11 13:53:23;;;;;;;6.97;2.40;;;13.20;99.90;;;;;;5094178;28;20543;-66
2021/03/11 13:55:49;;;;;;;10.23;3.10;;;13.20;99.90;;;;;;5094379;28;20171;-66
2021/03/11 13:58:15;;;;;;;7.70;3.03;;;13.30;99.90;;;;;;5094258;28;20209;-66
2021/03/11 14:00:40;;;;;;;9.10;3.23;;;13.30;99.90;;;;;;5093755;28;20650;-66
2021/03/11 14:03:06;;;;;;;7.03;2.30;;;13.40;99.90;;;;;;5093969;28;20186;-65
2021/03/11 14:05:32;;;;;;;5.30;2.30;;;13.40;99.90;;;;;;5101978;28;20228;-65
2021/03/11 14:07:57;;;;;;;8.83;3.40;;;13.40;99.90;;;;;;5114453;28;20148;-66
2021/03/11 14:10:23;;;;;;;4.53;1.63;;;13.40;99.90;;;;;;5114290;28;20230;-66
2021/03/11 14:12:48;;;;;;;11.43;2.33;;;13.50;99.90;;;;;;5114228;28;20162;-66
2021/03/11 14:15:14;;;;;;;6.00;2.40;;;13.60;99.90;;;;;;5114118;28;20164;-66
2021/03/11 14:17:39;;;;;;;10.80;2.83;;;13.70;99.90;;;;;;5114063;28;20663;-66
2021/03/11 14:20:06;;;;;;;7.17;2.27;;;13.70;99.90;;;;;;5114052;28;20190;-66
2021/03/11 14:22:32;;;;;;;8.70;2.50;;;13.80;99.90;;;;;;5113088;28;20259;-66
2021/03/11 14:24:58;;;;;;;6.50;1.57;;;13.70;99.90;;;;;;5112893;28;20385;-66